General Vatutin — USNZ — position and weather

sailwx.info

Track history (hours):
 
Tides and Currents Weather Stations Pressure Air Temp Water Temp Dewpoint Dewpoint Depression Visibility Wind Speed Wind Dir Waves Ship Positions

General Vatutin

Last reported at 2013-Sep-21 07:26 UTC. Time now 2014-Jul-30 23:26 UTC.
Position N 46°33' E 031°59'.
Warning: this ship's position is months out of date.

Length 129 m; draft 2.8 m.

Type: Passenger vessel. MMSI: 272877300.

Date/timePositionNaut miles runAvg speedWind from/ knotsBaromVisibWave heightAir tempDewpointWater temp
2013-Sep-21 07:26N 46°33' E 031°59'122 8.1
2013-Sep-20 16:16N 44°45' E 033°21'810.8
2013-Sep-20 15:33N 44°39' E 033°28'3 3.4
2013-Sep-20 14:33N 44°37' E 033°32'0 0.0
2013-Sep-20 13:33N 44°37' E 033°32'0 0.0
2013-Sep-20 12:33N 44°37' E 033°32'0 0.0
2013-Sep-20 11:34N 44°37' E 033°32'0 0.0
2013-Sep-20 10:33N 44°37' E 033°32'0 0.0
2013-Sep-20 09:33N 44°37' E 033°32'0 0.0
2013-Sep-20 08:33N 44°37' E 033°32'0 0.0
2013-Sep-20 07:33N 44°37' E 033°32'0 0.0
2013-Sep-20 06:34N 44°37' E 033°32'0 0.0
2013-Sep-20 05:34N 44°37' E 033°32'0 0.0
2013-Sep-20 04:34N 44°37' E 033°32'0 0.0
2013-Sep-20 03:33N 44°37' E 033°32'0 0.0
2013-Sep-20 02:33N 44°37' E 033°32'0 0.0
2013-Sep-20 01:34N 44°37' E 033°32'0 0.0
2013-Sep-20 00:33N 44°37' E 033°32'0 0.0
2013-Sep-19 23:33N 44°37' E 033°32'0 0.0
2013-Sep-19 22:34N 44°37' E 033°32'0 0.0
2013-Sep-19 21:33N 44°37' E 033°32'0 0.0
2013-Sep-19 20:33N 44°37' E 033°32'0 0.0
2013-Sep-19 19:33N 44°37' E 033°32'0 0.0
2013-Sep-19 18:33N 44°37' E 033°32'0 0.0
2013-Sep-19 17:33N 44°37' E 033°32'0 0.0
2013-Sep-19 16:33N 44°37' E 033°32'0 0.0
2013-Sep-19 15:33N 44°37' E 033°32'0 0.0
2013-Sep-19 14:33N 44°37' E 033°32'0 0.0
2013-Sep-19 13:33N 44°37' E 033°32'0 0.0
2013-Sep-19 12:33N 44°37' E 033°32'0 0.0
2013-Sep-19 11:33N 44°37' E 033°32'0 0.0
2013-Sep-19 10:33N 44°37' E 033°32'0 0.0
2013-Sep-19 09:33N 44°37' E 033°32'0 0.0
2013-Sep-19 08:33N 44°37' E 033°32'0 0.0
2013-Sep-19 07:33N 44°37' E 033°32'0 0.0
2013-Sep-19 06:33N 44°37' E 033°32'0 0.0
2013-Sep-19 05:33N 44°37' E 033°32'0 0.0
2013-Sep-19 04:33N 44°37' E 033°32'6 5.6
2013-Sep-19 03:33N 44°38' E 033°24'  
2013-Sep-12 16:32N 44°44' E 033°22'9 9.0
2013-Sep-12 15:33N 44°37' E 033°30'1 0.0
2013-Sep-11 16:28N 44°37' E 033°31'  
Track history (hours):
 
Tides and Currents Weather Stations Pressure Air Temp Water Temp Dewpoint Dewpoint Depression Visibility Wind Speed Wind Dir Waves Ship Positions

General Vatutin

Last reported at 2013-Sep-21 07:26 UTC. Time now 2014-Jul-30 23:26 UTC.
Position N 46°33' E 031°59'.
Warning: this ship's position is months out of date.

Length 129 m; draft 2.8 m.

Type: Passenger vessel. MMSI: 272877300.

Date/timePositionNaut miles runAvg speedWind from/ knotsBaromVisibWave heightAir tempDewpointWater temp
2013-Sep-21 07:26N 46°33' E 031°59'122 8.1
2013-Sep-20 16:16N 44°45' E 033°21'810.8
2013-Sep-20 15:33N 44°39' E 033°28'3 3.4
2013-Sep-20 14:33N 44°37' E 033°32'0 0.0
2013-Sep-20 13:33N 44°37' E 033°32'0 0.0
2013-Sep-20 12:33N 44°37' E 033°32'0 0.0
2013-Sep-20 11:34N 44°37' E 033°32'0 0.0
2013-Sep-20 10:33N 44°37' E 033°32'0 0.0
2013-Sep-20 09:33N 44°37' E 033°32'0 0.0
2013-Sep-20 08:33N 44°37' E 033°32'0 0.0
2013-Sep-20 07:33N 44°37' E 033°32'0 0.0
2013-Sep-20 06:34N 44°37' E 033°32'0 0.0
2013-Sep-20 05:34N 44°37' E 033°32'0 0.0
2013-Sep-20 04:34N 44°37' E 033°32'0 0.0
2013-Sep-20 03:33N 44°37' E 033°32'0 0.0
2013-Sep-20 02:33N 44°37' E 033°32'0 0.0
2013-Sep-20 01:34N 44°37' E 033°32'0 0.0
2013-Sep-20 00:33N 44°37' E 033°32'0 0.0
2013-Sep-19 23:33N 44°37' E 033°32'0 0.0
2013-Sep-19 22:34N 44°37' E 033°32'0 0.0
2013-Sep-19 21:33N 44°37' E 033°32'0 0.0
2013-Sep-19 20:33N 44°37' E 033°32'0 0.0
2013-Sep-19 19:33N 44°37' E 033°32'0 0.0
2013-Sep-19 18:33N 44°37' E 033°32'0 0.0
2013-Sep-19 17:33N 44°37' E 033°32'0 0.0
2013-Sep-19 16:33N 44°37' E 033°32'0 0.0
2013-Sep-19 15:33N 44°37' E 033°32'0 0.0
2013-Sep-19 14:33N 44°37' E 033°32'0 0.0
2013-Sep-19 13:33N 44°37' E 033°32'0 0.0
2013-Sep-19 12:33N 44°37' E 033°32'0 0.0
2013-Sep-19 11:33N 44°37' E 033°32'0 0.0
2013-Sep-19 10:33N 44°37' E 033°32'0 0.0
2013-Sep-19 09:33N 44°37' E 033°32'0 0.0
2013-Sep-19 08:33N 44°37' E 033°32'0 0.0
2013-Sep-19 07:33N 44°37' E 033°32'0 0.0
2013-Sep-19 06:33N 44°37' E 033°32'0 0.0
2013-Sep-19 05:33N 44°37' E 033°32'0 0.0
2013-Sep-19 04:33N 44°37' E 033°32'6 5.6
2013-Sep-19 03:33N 44°38' E 033°24'  
2013-Sep-12 16:32N 44°44' E 033°22'9 9.0
2013-Sep-12 15:33N 44°37' E 033°30'1 0.0
2013-Sep-11 16:28N 44°37' E 033°31'  

Dump ship's entire track history